Time,TemperatureF,DewpointF,PressureIn,WindDirection,WindDirectionDegrees,WindSpeedMPH,WindSpeedGustMPH,Humidity,HourlyPrecipIn,Conditions,Clouds,dailyrainin,SoftwareType,DateUTC
2013-03-18 00:03:00,22.3,7.4,30.22,NNW,337,0.0,-999.0,52,-99.99,,,0.00,Acu-Link.com,2013-03-18 04:03:00,
2013-03-18 00:18:00,22.1,6.3,30.23,West,270,0.0,-999.0,50,-99.99,,,0.00,Acu-Link.com,2013-03-18 04:18:00,
2013-03-18 00:34:00,20.7,6.7,30.24,West,270,0.0,-999.0,54,-99.99,,,0.00,Acu-Link.com,2013-03-18 04:34:00,
2013-03-18 00:49:00,19.6,6.9,30.25,West,270,0.0,-999.0,57,-99.99,,,0.00,Acu-Link.com,2013-03-18 04:49:00,
2013-03-18 01:04:00,19.9,9.4,30.25,North,0,1.1,-999.0,63,-99.99,,,0.00,Acu-Link.com,2013-03-18 05:04:00,
2013-03-18 01:19:00,21.0,6.6,30.27,North,0,1.7,-999.0,53,-99.99,,,0.00,Acu-Link.com,2013-03-18 05:19:00,
2013-03-18 01:34:00,20.3,6.3,30.27,SW,225,1.7,-999.0,54,-99.99,,,0.00,Acu-Link.com,2013-03-18 05:34:00,
2013-03-18 01:49:00,19.8,7.1,30.27,ESE,112,1.7,-999.0,57,-99.99,,,0.00,Acu-Link.com,2013-03-18 05:49:00,
2013-03-18 02:04:00,20.5,5.7,30.28,East,90,1.1,-999.0,52,-99.99,,,0.00,Acu-Link.com,2013-03-18 06:04:00,
2013-03-18 02:19:00,20.5,4.9,30.29,West,270,3.7,-999.0,50,-99.99,,,0.00,Acu-Link.com,2013-03-18 06:19:00,
2013-03-18 02:34:00,20.5,4.9,30.30,NE,45,2.7,-999.0,50,-99.99,,,0.00,Acu-Link.com,2013-03-18 06:34:00,
2013-03-18 02:49:00,19.2,4.5,30.30,WNW,292,0.0,-999.0,52,-99.99,,,0.00,Acu-Link.com,2013-03-18 06:49:00,
2013-03-18 03:05:00,18.5,4.3,30.31,West,270,2.2,-999.0,53,-99.99,,,0.00,Acu-Link.com,2013-03-18 07:05:00,
2013-03-18 03:20:00,18.9,3.4,30.31,NNE,22,2.7,-999.0,50,-99.99,,,0.00,Acu-Link.com,2013-03-18 07:20:00,
2013-03-18 03:35:00,19.8,3.3,30.31,North,0,1.7,-999.0,48,-99.99,,,0.00,Acu-Link.com,2013-03-18 07:35:00,
2013-03-18 03:50:00,19.4,2.5,30.31,NW,315,4.7,-999.0,47,-99.99,,,0.00,Acu-Link.com,2013-03-18 07:50:00,
2013-03-18 04:05:00,19.8,1.9,30.31,NW,315,2.7,-999.0,45,-99.99,,,0.00,Acu-Link.com,2013-03-18 08:05:00,
2013-03-18 04:20:00,19.4,2.5,30.31,West,270,2.2,-999.0,47,-99.99,,,0.00,Acu-Link.com,2013-03-18 08:20:00,
2013-03-18 04:36:00,19.8,1.5,30.32,West,270,2.7,-999.0,44,-99.99,,,0.00,Acu-Link.com,2013-03-18 08:36:00,
2013-03-18 04:51:00,18.3,2.4,30.32,NNE,22,1.1,-999.0,49,-99.99,,,0.00,Acu-Link.com,2013-03-18 08:51:00,
2013-03-18 05:36:00,15.8,1.7,30.34,ENE,67,1.1,-999.0,53,-99.99,,,0.00,Acu-Link.com,2013-03-18 09:36:00,
2013-03-18 05:51:00,15.1,2.6,30.35,NNE,22,0.0,-999.0,57,-99.99,,,0.00,Acu-Link.com,2013-03-18 09:51:00,
2013-03-18 06:21:00,14.2,4.3,30.36,WNW,292,0.0,-999.0,64,-99.99,,,0.00,Acu-Link.com,2013-03-18 10:21:00,
2013-03-18 06:52:00,13.5,2.2,30.37,SE,135,0.0,-999.0,60,-99.99,,,0.00,Acu-Link.com,2013-03-18 10:52:00,
2013-03-18 07:07:00,13.6,4.1,30.37,NW,315,0.0,-999.0,65,-99.99,,,0.00,Acu-Link.com,2013-03-18 11:07:00,
2013-03-18 07:22:00,13.3,3.8,30.38,NW,315,0.0,-999.0,65,-99.99,,,0.00,Acu-Link.com,2013-03-18 11:22:00,
2013-03-18 07:37:00,14.9,4.6,30.38,South,180,0.0,-999.0,63,-99.99,,,0.00,Acu-Link.com,2013-03-18 11:37:00,
2013-03-18 07:52:00,17.1,5.6,30.38,WNW,292,1.7,-999.0,60,-99.99,,,0.00,Acu-Link.com,2013-03-18 11:52:00,
2013-03-18 08:07:00,19.8,5.1,30.38,West,270,2.7,-999.0,52,-99.99,,,0.00,Acu-Link.com,2013-03-18 12:07:00,
2013-03-18 08:22:00,22.1,5.0,30.38,East,90,0.0,-999.0,47,-99.99,,,0.00,Acu-Link.com,2013-03-18 12:22:00,
2013-03-18 08:37:00,25.3,3.8,30.38,West,270,1.7,-999.0,39,-99.99,,,0.00,Acu-Link.com,2013-03-18 12:37:00,
2013-03-18 08:52:00,26.4,4.3,30.38,SSW,202,2.7,-999.0,38,-99.99,,,0.00,Acu-Link.com,2013-03-18 12:52:00,
2013-03-18 09:08:00,27.9,2.6,30.38,West,270,3.2,-999.0,33,-99.99,,,0.00,Acu-Link.com,2013-03-18 13:08:00,
2013-03-18 09:23:00,29.5,4.6,30.37,NE,45,4.2,-999.0,34,-99.99,,,0.00,Acu-Link.com,2013-03-18 13:23:00,
2013-03-18 09:38:00,28.9,2.8,30.37,WSW,247,3.7,-999.0,32,-99.99,,,0.00,Acu-Link.com,2013-03-18 13:38:00,
2013-03-18 09:53:00,26.2,2.9,30.36,WNW,292,4.7,-999.0,36,-99.99,,,0.00,Acu-Link.com,2013-03-18 13:53:00,
2013-03-18 10:08:00,26.4,3.7,30.35,WSW,247,4.7,-999.0,37,-99.99,,,0.00,Acu-Link.com,2013-03-18 14:08:00,
2013-03-18 10:23:00,27.3,4.5,30.34,ESE,112,2.2,-999.0,37,-99.99,,,0.00,Acu-Link.com,2013-03-18 14:23:00,
2013-03-18 10:38:00,28.9,4.7,30.34,West,270,2.2,-999.0,35,-99.99,,,0.00,Acu-Link.com,2013-03-18 14:38:00,
2013-03-18 10:53:00,30.4,6.1,30.34,ESE,112,2.7,-999.0,35,-99.99,,,0.00,Acu-Link.com,2013-03-18 14:53:00,
2013-03-18 11:08:00,29.8,6.1,30.34,SE,135,1.7,-999.0,36,-99.99,,,0.00,Acu-Link.com,2013-03-18 15:08:00,
2013-03-18 11:24:00,31.6,7.1,30.33,ENE,67,1.7,-999.0,35,-99.99,,,0.00,Acu-Link.com,2013-03-18 15:24:00,
2013-03-18 11:39:00,30.7,6.9,30.33,South,180,3.2,-999.0,36,-99.99,,,0.00,Acu-Link.com,2013-03-18 15:39:00,
2013-03-18 11:54:00,30.6,5.6,30.33,SW,225,4.7,-999.0,34,-99.99,,,0.00,Acu-Link.com,2013-03-18 15:54:00,
2013-03-18 12:09:00,32.0,6.8,30.32,SSW,202,2.7,-999.0,34,-99.99,,,0.00,Acu-Link.com,2013-03-18 16:09:00,
2013-03-18 12:24:00,32.5,7.9,30.31,SSW,202,3.7,-999.0,35,-99.99,,,0.00,Acu-Link.com,2013-03-18 16:24:00,
2013-03-18 12:55:00,34.0,6.6,30.31,SSE,157,3.7,-999.0,31,-99.99,,,0.00,Acu-Link.com,2013-03-18 16:55:00,
2013-03-18 13:10:00,40.1,8.0,30.30,NW,315,3.2,-999.0,26,-99.99,,,0.00,Acu-Link.com,2013-03-18 17:10:00,
2013-03-18 13:25:00,36.7,7.5,30.29,South,180,5.8,-999.0,29,-99.99,,,0.00,Acu-Link.com,2013-03-18 17:25:00,
2013-03-18 13:40:00,40.3,8.2,30.28,NNE,22,4.2,-999.0,26,-99.99,,,0.00,Acu-Link.com,2013-03-18 17:40:00,
2013-03-18 13:55:00,37.8,5.2,30.28,SSW,202,3.7,-999.0,25,-99.99,,,0.00,Acu-Link.com,2013-03-18 17:55:00,
2013-03-18 14:10:00,37.2,7.1,30.27,WSW,247,3.7,-999.0,28,-99.99,,,0.00,Acu-Link.com,2013-03-18 18:10:00,
2013-03-18 14:25:00,39.0,7.9,30.26,SW,225,4.7,-999.0,27,-99.99,,,0.00,Acu-Link.com,2013-03-18 18:25:00,
2013-03-18 14:40:00,37.9,6.9,30.25,SW,225,2.7,-999.0,27,-99.99,,,0.00,Acu-Link.com,2013-03-18 18:40:00,
2013-03-18 14:55:00,40.3,9.0,30.24,SSW,202,4.7,-999.0,27,-99.99,,,0.00,Acu-Link.com,2013-03-18 18:55:00,
2013-03-18 15:11:00,39.6,7.6,30.24,SSW,202,1.7,-999.0,26,-99.99,,,0.00,Acu-Link.com,2013-03-18 19:11:00,
2013-03-18 15:26:00,41.4,8.3,30.23,North,0,4.2,-999.0,25,-99.99,,,0.00,Acu-Link.com,2013-03-18 19:26:00,
2013-03-18 16:11:00,38.7,6.8,30.22,SSE,157,4.2,-999.0,26,-99.99,,,0.00,Acu-Link.com,2013-03-18 20:11:00,
2013-03-18 16:26:00,39.7,8.5,30.21,SW,225,1.1,-999.0,27,-99.99,,,0.00,Acu-Link.com,2013-03-18 20:26:00,
2013-03-18 16:41:00,39.7,8.5,30.20,South,180,2.7,-999.0,27,-99.99,,,0.00,Acu-Link.com,2013-03-18 20:41:00,
2013-03-18 16:56:00,39.0,7.9,30.19,SW,225,3.7,-999.0,27,-99.99,,,0.00,Acu-Link.com,2013-03-18 20:56:00,
2013-03-18 17:11:00,37.8,8.4,30.19,ESE,112,1.1,-999.0,29,-99.99,,,0.00,Acu-Link.com,2013-03-18 21:11:00,
2013-03-18 17:26:00,37.2,8.7,30.18,SW,225,2.2,-999.0,30,-99.99,,,0.00,Acu-Link.com,2013-03-18 21:26:00,
2013-03-18 17:42:00,36.7,11.0,30.19,ESE,112,1.1,-999.0,34,-99.99,,,0.00,Acu-Link.com,2013-03-18 21:42:00,
2013-03-18 17:57:00,35.8,12.7,30.19,North,0,3.7,-999.0,38,-99.99,,,0.00,Acu-Link.com,2013-03-18 21:57:00,
2013-03-18 18:12:00,34.7,15.0,30.19,South,180,4.2,-999.0,44,-99.99,,,0.00,Acu-Link.com,2013-03-18 22:12:00,
2013-03-18 18:27:00,34.0,16.9,30.19,ESE,112,5.3,-999.0,49,-99.99,,,0.00,Acu-Link.com,2013-03-18 22:27:00,
2013-03-18 18:42:00,33.8,17.6,30.19,SSW,202,3.7,-999.0,51,-99.99,,,0.00,Acu-Link.com,2013-03-18 22:42:00,
2013-03-18 18:57:00,33.4,18.6,30.19,South,180,5.3,-999.0,54,-99.99,,,0.00,Acu-Link.com,2013-03-18 22:57:00,
2013-03-18 19:12:00,33.1,19.1,30.20,SSW,202,4.7,-999.0,56,-99.99,,,0.00,Acu-Link.com,2013-03-18 23:12:00,
2013-03-18 19:27:00,33.1,20.0,30.19,SW,225,3.2,-999.0,58,-99.99,,,0.00,Acu-Link.com,2013-03-18 23:27:00,
2013-03-18 19:42:00,32.9,20.2,30.17,SE,135,2.2,-999.0,59,-99.99,,,0.00,Acu-Link.com,2013-03-18 23:42:00,
2013-03-18 19:58:00,32.7,20.4,30.17,South,180,2.7,-999.0,60,-99.99,,,0.00,Acu-Link.com,2013-03-18 23:58:00,
2013-03-18 20:13:00,32.7,20.8,30.17,SW,225,4.7,-999.0,61,-99.99,,,0.00,Acu-Link.com,2013-03-19 00:13:00,
2013-03-18 20:28:00,32.5,20.9,30.17,SSE,157,3.2,-999.0,62,-99.99,,,0.00,Acu-Link.com,2013-03-19 00:28:00,
2013-03-18 20:43:00,32.5,20.9,30.18,ESE,112,3.2,-999.0,62,-99.99,,,0.00,Acu-Link.com,2013-03-19 00:43:00,
2013-03-18 20:58:00,30.6,25.2,30.18,SSW,202,4.7,-999.0,80,-99.99,,,0.00,Acu-Link.com,2013-03-19 00:58:00,
2013-03-18 21:13:00,28.9,27.4,30.18,SE,135,1.1,-999.0,94,-99.99,,,0.00,Acu-Link.com,2013-03-19 01:13:00,
2013-03-18 21:29:00,28.8,27.6,30.17,WSW,247,3.7,-999.0,95,-99.99,,,0.00,Acu-Link.com,2013-03-19 01:29:00,
2013-03-18 21:44:00,28.8,27.8,30.17,South,180,0.0,-999.0,96,-99.99,,,0.00,Acu-Link.com,2013-03-19 01:44:00,
2013-03-18 21:59:00,28.8,27.8,30.17,NNE,22,2.2,-999.0,96,-99.99,,,0.00,Acu-Link.com,2013-03-19 01:59:00,
2013-03-18 22:14:00,29.1,27.1,30.17,ENE,67,2.2,-999.0,92,-99.99,,,0.00,Acu-Link.com,2013-03-19 02:14:00,
2013-03-18 22:29:00,28.9,26.6,30.17,ENE,67,1.1,-999.0,91,-99.99,,,0.00,Acu-Link.com,2013-03-19 02:29:00,
2013-03-18 22:44:00,29.1,26.8,30.16,NNW,337,2.7,-999.0,91,-99.99,,,0.00,Acu-Link.com,2013-03-19 02:44:00,
2013-03-18 22:59:00,29.1,26.8,30.15,ENE,67,2.7,-999.0,91,-99.99,,,0.00,Acu-Link.com,2013-03-19 02:59:00,
2013-03-18 23:14:00,29.1,26.8,30.15,WNW,292,1.1,-999.0,91,-99.99,,,0.00,Acu-Link.com,2013-03-19 03:14:00,
2013-03-18 23:29:00,29.1,26.8,30.15,WNW,292,1.7,-999.0,91,-99.99,,,0.00,Acu-Link.com,2013-03-19 03:29:00,
2013-03-18 23:45:00,29.1,26.8,30.14,ENE,67,3.2,-999.0,91,-99.99,,,0.00,Acu-Link.com,2013-03-19 03:45:00,